sensor_id;sensor_type;location;lat;lon;timestamp;temperature;humidity
3055;DHT22;1537;52.018;8.542;2022-10-03T00:02:04;10.50;72.00
3055;DHT22;1537;52.018;8.542;2022-10-03T00:05:40;10.50;72.30
3055;DHT22;1537;52.018;8.542;2022-10-03T00:13:06;10.50;72.50
3055;DHT22;1537;52.018;8.542;2022-10-03T00:16:46;10.40;72.80
3055;DHT22;1537;52.018;8.542;2022-10-03T00:20:34;10.40;72.90
3055;DHT22;1537;52.018;8.542;2022-10-03T00:24:11;10.30;73.00
3055;DHT22;1537;52.018;8.542;2022-10-03T00:27:43;10.30;73.10
3055;DHT22;1537;52.018;8.542;2022-10-03T00:31:12;10.30;73.20
3055;DHT22;1537;52.018;8.542;2022-10-03T00:34:47;10.30;73.40
3055;DHT22;1537;52.018;8.542;2022-10-03T00:46:34;10.20;73.90
3055;DHT22;1537;52.018;8.542;2022-10-03T00:50:32;10.10;74.20
3055;DHT22;1537;52.018;8.542;2022-10-03T00:54:11;10.10;74.30
3055;DHT22;1537;52.018;8.542;2022-10-03T00:57:47;10.10;74.30
3055;DHT22;1537;52.018;8.542;2022-10-03T01:01:23;10.10;74.40
3055;DHT22;1537;52.018;8.542;2022-10-03T01:04:59;10.00;74.80
3055;DHT22;1537;52.018;8.542;2022-10-03T01:08:47;10.00;75.10
3055;DHT22;1537;52.018;8.542;2022-10-03T01:16:09;9.90;76.40
3055;DHT22;1537;52.018;8.542;2022-10-03T01:19:53;9.90;76.60
3055;DHT22;1537;52.018;8.542;2022-10-03T01:23:44;9.90;76.80
3055;DHT22;1537;52.018;8.542;2022-10-03T01:27:11;9.80;76.80
3055;DHT22;1537;52.018;8.542;2022-10-03T01:30:41;9.80;76.90
3055;DHT22;1537;52.018;8.542;2022-10-03T01:34:11;9.80;77.30
3055;DHT22;1537;52.018;8.542;2022-10-03T01:37:41;9.70;77.40
3055;DHT22;1537;52.018;8.542;2022-10-03T01:41:09;9.70;77.70
3055;DHT22;1537;52.018;8.542;2022-10-03T01:44:43;9.70;77.70
3055;DHT22;1537;52.018;8.542;2022-10-03T01:48:16;9.70;77.80
3055;DHT22;1537;52.018;8.542;2022-10-03T01:51:46;9.70;78.00
3055;DHT22;1537;52.018;8.542;2022-10-03T01:55:20;9.60;78.00
3055;DHT22;1537;52.018;8.542;2022-10-03T01:58:52;9.60;78.20
3055;DHT22;1537;52.018;8.542;2022-10-03T02:02:29;9.60;78.20
3055;DHT22;1537;52.018;8.542;2022-10-03T02:05:59;9.60;78.20
3055;DHT22;1537;52.018;8.542;2022-10-03T02:09:33;9.60;78.30
3055;DHT22;1537;52.018;8.542;2022-10-03T02:13:10;9.60;78.40
3055;DHT22;1537;52.018;8.542;2022-10-03T02:16:39;9.60;78.50
3055;DHT22;1537;52.018;8.542;2022-10-03T02:20:11;9.50;78.80
3055;DHT22;1537;52.018;8.542;2022-10-03T02:23:41;9.50;78.80
3055;DHT22;1537;52.018;8.542;2022-10-03T02:27:29;9.50;79.10
3055;DHT22;1537;52.018;8.542;2022-10-03T02:35:11;9.50;79.50
3055;DHT22;1537;52.018;8.542;2022-10-03T02:39:05;9.40;79.60
3055;DHT22;1537;52.018;8.542;2022-10-03T02:42:47;9.50;80.00
3055;DHT22;1537;52.018;8.542;2022-10-03T02:46:39;9.40;80.00
3055;DHT22;1537;52.018;8.542;2022-10-03T02:54:40;9.40;80.20
3055;DHT22;1537;52.018;8.542;2022-10-03T03:02:26;9.50;80.40
3055;DHT22;1537;52.018;8.542;2022-10-03T03:06:36;9.40;80.60
3055;DHT22;1537;52.018;8.542;2022-10-03T03:10:28;9.40;80.70
3055;DHT22;1537;52.018;8.542;2022-10-03T03:17:51;9.40;81.00
3055;DHT22;1537;52.018;8.542;2022-10-03T03:21:25;9.40;81.20
3055;DHT22;1537;52.018;8.542;2022-10-03T03:25:02;9.40;81.10
3055;DHT22;1537;52.018;8.542;2022-10-03T03:28:43;9.40;81.50
3055;DHT22;1537;52.018;8.542;2022-10-03T03:32:23;9.40;81.90
3055;DHT22;1537;52.018;8.542;2022-10-03T03:36:00;9.40;82.00
3055;DHT22;1537;52.018;8.542;2022-10-03T03:39:38;9.40;82.10
3055;DHT22;1537;52.018;8.542;2022-10-03T03:43:26;9.40;82.20
3055;DHT22;1537;52.018;8.542;2022-10-03T03:47:16;9.40;82.10
3055;DHT22;1537;52.018;8.542;2022-10-03T03:50:58;9.50;82.00
3055;DHT22;1537;52.018;8.542;2022-10-03T03:54:50;9.50;82.30
3055;DHT22;1537;52.018;8.542;2022-10-03T03:58:34;9.50;82.30
3055;DHT22;1537;52.018;8.542;2022-10-03T04:02:21;9.50;82.30
3055;DHT22;1537;52.018;8.542;2022-10-03T04:06:16;9.50;82.40
3055;DHT22;1537;52.018;8.542;2022-10-03T04:17:42;9.50;82.40
3055;DHT22;1537;52.018;8.542;2022-10-03T04:21:58;9.50;82.30
3055;DHT22;1537;52.018;8.542;2022-10-03T04:26:00;9.50;82.20
3055;DHT22;1537;52.018;8.542;2022-10-03T04:29:45;9.50;82.30
3055;DHT22;1537;52.018;8.542;2022-10-03T04:33:29;9.50;82.50
3055;DHT22;1537;52.018;8.542;2022-10-03T04:37:24;9.50;83.30
3055;DHT22;1537;52.018;8.542;2022-10-03T04:40:56;9.50;82.50
3055;DHT22;1537;52.018;8.542;2022-10-03T04:44:34;9.50;82.50
3055;DHT22;1537;52.018;8.542;2022-10-03T04:48:10;9.40;82.40
3055;DHT22;1537;52.018;8.542;2022-10-03T04:51:48;9.40;82.60
3055;DHT22;1537;52.018;8.542;2022-10-03T04:55:26;9.40;82.80
3055;DHT22;1537;52.018;8.542;2022-10-03T04:59:03;9.40;82.90
3055;DHT22;1537;52.018;8.542;2022-10-03T05:02:44;9.40;82.90
3055;DHT22;1537;52.018;8.542;2022-10-03T05:06:21;9.40;83.00
3055;DHT22;1537;52.018;8.542;2022-10-03T05:09:52;9.30;82.90
3055;DHT22;1537;52.018;8.542;2022-10-03T05:13:21;9.30;82.90
3055;DHT22;1537;52.018;8.542;2022-10-03T05:16:56;9.40;83.20
3055;DHT22;1537;52.018;8.542;2022-10-03T05:20:43;9.40;83.20
3055;DHT22;1537;52.018;8.542;2022-10-03T05:24:18;9.40;83.20
3055;DHT22;1537;52.018;8.542;2022-10-03T05:27:50;9.40;83.00
3055;DHT22;1537;52.018;8.542;2022-10-03T05:31:27;9.50;83.10
3055;DHT22;1537;52.018;8.542;2022-10-03T05:35:18;9.40;83.20
3055;DHT22;1537;52.018;8.542;2022-10-03T05:39:25;9.50;83.40
3055;DHT22;1537;52.018;8.542;2022-10-03T05:43:09;9.50;83.20
3055;DHT22;1537;52.018;8.542;2022-10-03T05:46:45;9.60;83.10
3055;DHT22;1537;52.018;8.542;2022-10-03T05:50:37;9.70;83.10
3055;DHT22;1537;52.018;8.542;2022-10-03T05:54:35;9.70;82.80
3055;DHT22;1537;52.018;8.542;2022-10-03T05:58:56;9.70;82.90
3055;DHT22;1537;52.018;8.542;2022-10-03T06:03:13;9.80;82.80
3055;DHT22;1537;52.018;8.542;2022-10-03T06:06:53;9.70;82.80
3055;DHT22;1537;52.018;8.542;2022-10-03T06:10:38;9.70;82.80
3055;DHT22;1537;52.018;8.542;2022-10-03T06:14:28;9.70;82.80
3055;DHT22;1537;52.018;8.542;2022-10-03T06:18:10;9.70;82.90
3055;DHT22;1537;52.018;8.542;2022-10-03T06:22:13;9.80;83.10
3055;DHT22;1537;52.018;8.542;2022-10-03T06:25:59;9.80;82.90
3055;DHT22;1537;52.018;8.542;2022-10-03T06:33:58;9.90;82.70
3055;DHT22;1537;52.018;8.542;2022-10-03T06:42:00;10.30;81.90
3055;DHT22;1537;52.018;8.542;2022-10-03T06:50:14;10.70;79.70
3055;DHT22;1537;52.018;8.542;2022-10-03T06:54:11;10.60;79.40
3055;DHT22;1537;52.018;8.542;2022-10-03T07:01:46;10.60;78.60
3055;DHT22;1537;52.018;8.542;2022-10-03T07:09:55;10.60;79.00
3055;DHT22;1537;52.018;8.542;2022-10-03T07:17:39;11.10;78.90
3055;DHT22;1537;52.018;8.542;2022-10-03T07:21:33;11.40;77.60
3055;DHT22;1537;52.018;8.542;2022-10-03T07:25:22;11.70;76.40
3055;DHT22;1537;52.018;8.542;2022-10-03T07:33:06;11.90;73.70
3055;DHT22;1537;52.018;8.542;2022-10-03T07:37:00;12.10;73.80
3055;DHT22;1537;52.018;8.542;2022-10-03T07:41:12;13.20;72.70
3055;DHT22;1537;52.018;8.542;2022-10-03T07:45:02;14.00;66.00
3055;DHT22;1537;52.018;8.542;2022-10-03T07:48:51;13.80;65.40
3055;DHT22;1537;52.018;8.542;2022-10-03T07:52:46;14.30;65.10
3055;DHT22;1537;52.018;8.542;2022-10-03T07:56:34;14.10;63.90
3055;DHT22;1537;52.018;8.542;2022-10-03T08:00:16;13.80;65.30
3055;DHT22;1537;52.018;8.542;2022-10-03T08:04:23;13.60;65.80
3055;DHT22;1537;52.018;8.542;2022-10-03T08:08:18;13.20;66.90
3055;DHT22;1537;52.018;8.542;2022-10-03T08:20:04;12.90;68.30
3055;DHT22;1537;52.018;8.542;2022-10-03T08:24:07;12.80;68.90
3055;DHT22;1537;52.018;8.542;2022-10-03T08:27:44;12.70;69.10
3055;DHT22;1537;52.018;8.542;2022-10-03T08:35:36;12.60;69.20
3055;DHT22;1537;52.018;8.542;2022-10-03T08:39:27;12.60;69.00
3055;DHT22;1537;52.018;8.542;2022-10-03T08:43:24;13.30;68.50
3055;DHT22;1537;52.018;8.542;2022-10-03T08:47:51;13.50;66.50
3055;DHT22;1537;52.018;8.542;2022-10-03T08:51:51;13.40;66.90
3055;DHT22;1537;52.018;8.542;2022-10-03T08:55:37;13.60;66.20
3055;DHT22;1537;52.018;8.542;2022-10-03T08:59:36;14.00;65.40
3055;DHT22;1537;52.018;8.542;2022-10-03T09:07:25;15.20;60.60
3055;DHT22;1537;52.018;8.542;2022-10-03T09:11:29;15.40;60.30
3055;DHT22;1537;52.018;8.542;2022-10-03T09:15:10;16.50;57.20
3055;DHT22;1537;52.018;8.542;2022-10-03T09:19:05;16.80;56.30
3055;DHT22;1537;52.018;8.542;2022-10-03T09:23:02;16.90;55.90
3055;DHT22;1537;52.018;8.542;2022-10-03T09:26:54;16.80;56.00
3055;DHT22;1537;52.018;8.542;2022-10-03T09:30:31;17.10;56.40
3055;DHT22;1537;52.018;8.542;2022-10-03T09:34:40;18.70;53.10
3055;DHT22;1537;52.018;8.542;2022-10-03T09:38:49;20.00;50.20
3055;DHT22;1537;52.018;8.542;2022-10-03T09:42:33;20.70;47.70
3055;DHT22;1537;52.018;8.542;2022-10-03T09:46:37;20.90;47.70
3055;DHT22;1537;52.018;8.542;2022-10-03T09:54:35;22.50;44.80
3055;DHT22;1537;52.018;8.542;2022-10-03T09:58:32;23.30;43.50
3055;DHT22;1537;52.018;8.542;2022-10-03T10:02:14;22.60;44.40
3055;DHT22;1537;52.018;8.542;2022-10-03T10:10:17;23.20;43.10
3055;DHT22;1537;52.018;8.542;2022-10-03T10:30:20;21.10;46.40
3055;DHT22;1537;52.018;8.542;2022-10-03T10:38:03;21.90;45.90
3055;DHT22;1537;52.018;8.542;2022-10-03T10:45:37;21.60;46.50
3055;DHT22;1537;52.018;8.542;2022-10-03T10:49:37;20.90;47.00
3055;DHT22;1537;52.018;8.542;2022-10-03T10:57:56;20.60;48.40
3055;DHT22;1537;52.018;8.542;2022-10-03T11:06:02;20.00;48.80
3055;DHT22;1537;52.018;8.542;2022-10-03T11:09:51;19.00;51.10
3055;DHT22;1537;52.018;8.542;2022-10-03T11:17:50;18.10;53.40
3055;DHT22;1537;52.018;8.542;2022-10-03T11:25:45;17.30;55.80
3055;DHT22;1537;52.018;8.542;2022-10-03T11:37:40;17.50;54.60
3055;DHT22;1537;52.018;8.542;2022-10-03T11:41:12;17.90;53.70
3055;DHT22;1537;52.018;8.542;2022-10-03T11:44:41;18.40;52.80
3055;DHT22;1537;52.018;8.542;2022-10-03T11:48:22;18.80;51.40
3055;DHT22;1537;52.018;8.542;2022-10-03T11:51:56;18.80;50.60
3055;DHT22;1537;52.018;8.542;2022-10-03T11:55:30;18.90;50.40
3055;DHT22;1537;52.018;8.542;2022-10-03T11:59:13;18.80;49.30
3055;DHT22;1537;52.018;8.542;2022-10-03T12:03:06;19.10;48.60
3055;DHT22;1537;52.018;8.542;2022-10-03T12:06:52;19.30;47.80
3055;DHT22;1537;52.018;8.542;2022-10-03T12:10:45;19.30;46.90
3055;DHT22;1537;52.018;8.542;2022-10-03T12:14:21;19.30;47.80
3055;DHT22;1537;52.018;8.542;2022-10-03T12:17:51;19.50;45.80
3055;DHT22;1537;52.018;8.542;2022-10-03T12:21:25;19.30;46.80
3055;DHT22;1537;52.018;8.542;2022-10-03T12:24:56;19.10;47.50
3055;DHT22;1537;52.018;8.542;2022-10-03T12:28:23;19.20;47.50
3055;DHT22;1537;52.018;8.542;2022-10-03T12:31:58;19.00;48.00
3055;DHT22;1537;52.018;8.542;2022-10-03T12:35:37;18.80;48.10
3055;DHT22;1537;52.018;8.542;2022-10-03T12:39:17;18.60;48.10
3055;DHT22;1537;52.018;8.542;2022-10-03T12:43:00;18.70;47.90
3055;DHT22;1537;52.018;8.542;2022-10-03T12:46:31;18.70;47.90
3055;DHT22;1537;52.018;8.542;2022-10-03T12:50:03;18.80;48.00
3055;DHT22;1537;52.018;8.542;2022-10-03T12:53:34;18.90;47.80
3055;DHT22;1537;52.018;8.542;2022-10-03T12:57:16;19.10;47.20
3055;DHT22;1537;52.018;8.542;2022-10-03T13:00:53;18.80;47.20
3055;DHT22;1537;52.018;8.542;2022-10-03T13:04:28;18.80;47.40
3055;DHT22;1537;52.018;8.542;2022-10-03T13:07:56;18.90;47.00
3055;DHT22;1537;52.018;8.542;2022-10-03T13:11:31;18.80;47.10
3055;DHT22;1537;52.018;8.542;2022-10-03T13:15:32;18.40;47.30
3055;DHT22;1537;52.018;8.542;2022-10-03T13:19:03;18.20;47.80
3055;DHT22;1537;52.018;8.542;2022-10-03T13:22:33;18.30;47.90
3055;DHT22;1537;52.018;8.542;2022-10-03T13:26:06;18.10;48.40
3055;DHT22;1537;52.018;8.542;2022-10-03T13:29:40;18.20;48.80
3055;DHT22;1537;52.018;8.542;2022-10-03T13:33:12;18.00;49.00
3055;DHT22;1537;52.018;8.542;2022-10-03T13:36:42;18.10;48.90
3055;DHT22;1537;52.018;8.542;2022-10-03T13:40:11;18.00;49.10
3055;DHT22;1537;52.018;8.542;2022-10-03T13:43:42;18.00;49.10
3055;DHT22;1537;52.018;8.542;2022-10-03T13:47:28;18.10;48.90
3055;DHT22;1537;52.018;8.542;2022-10-03T13:50:56;18.00;49.00
3055;DHT22;1537;52.018;8.542;2022-10-03T13:54:45;17.90;49.20
3055;DHT22;1537;52.018;8.542;2022-10-03T13:58:29;17.80;49.50
3055;DHT22;1537;52.018;8.542;2022-10-03T14:02:00;17.80;48.70
3055;DHT22;1537;52.018;8.542;2022-10-03T14:05:54;17.90;48.70
3055;DHT22;1537;52.018;8.542;2022-10-03T14:09:35;17.90;48.60
3055;DHT22;1537;52.018;8.542;2022-10-03T14:13:11;17.80;48.60
3055;DHT22;1537;52.018;8.542;2022-10-03T14:16:43;17.80;48.50
3055;DHT22;1537;52.018;8.542;2022-10-03T14:20:19;17.90;48.80
3055;DHT22;1537;52.018;8.542;2022-10-03T14:23:47;17.80;48.80
3055;DHT22;1537;52.018;8.542;2022-10-03T14:27:32;17.70;49.60
3055;DHT22;1537;52.018;8.542;2022-10-03T14:31:03;17.60;49.50
3055;DHT22;1537;52.018;8.542;2022-10-03T14:34:45;17.70;49.90
3055;DHT22;1537;52.018;8.542;2022-10-03T14:38:33;17.60;50.10
3055;DHT22;1537;52.018;8.542;2022-10-03T14:42:52;17.40;50.20
3055;DHT22;1537;52.018;8.542;2022-10-03T14:46:40;17.30;50.70
3055;DHT22;1537;52.018;8.542;2022-10-03T14:50:14;17.10;50.90
3055;DHT22;1537;52.018;8.542;2022-10-03T14:53:46;17.10;50.80
3055;DHT22;1537;52.018;8.542;2022-10-03T14:57:28;17.10;51.20
3055;DHT22;1537;52.018;8.542;2022-10-03T15:01:24;17.00;51.70
3055;DHT22;1537;52.018;8.542;2022-10-03T15:04:54;17.00;51.90
3055;DHT22;1537;52.018;8.542;2022-10-03T15:08:22;16.90;51.80
3055;DHT22;1537;52.018;8.542;2022-10-03T15:11:53;16.90;51.70
3055;DHT22;1537;52.018;8.542;2022-10-03T15:15:25;16.90;52.00
3055;DHT22;1537;52.018;8.542;2022-10-03T15:19:00;16.70;52.20
3055;DHT22;1537;52.018;8.542;2022-10-03T15:22:31;16.70;52.40
3055;DHT22;1537;52.018;8.542;2022-10-03T15:25:56;16.70;52.80
3055;DHT22;1537;52.018;8.542;2022-10-03T15:29:22;16.60;53.10
3055;DHT22;1537;52.018;8.542;2022-10-03T15:32:47;16.50;53.30
3055;DHT22;1537;52.018;8.542;2022-10-03T15:36:15;16.40;53.70
3055;DHT22;1537;52.018;8.542;2022-10-03T15:39:42;16.40;54.10
3055;DHT22;1537;52.018;8.542;2022-10-03T15:43:26;16.30;54.30
3055;DHT22;1537;52.018;8.542;2022-10-03T15:46:53;16.20;54.60
3055;DHT22;1537;52.018;8.542;2022-10-03T15:50:22;16.20;54.70
3055;DHT22;1537;52.018;8.542;2022-10-03T15:53:50;16.30;54.90
3055;DHT22;1537;52.018;8.542;2022-10-03T15:57:18;16.10;55.10
3055;DHT22;1537;52.018;8.542;2022-10-03T16:00:51;16.10;55.10
3055;DHT22;1537;52.018;8.542;2022-10-03T16:04:19;16.10;55.30
3055;DHT22;1537;52.018;8.542;2022-10-03T16:07:53;16.10;55.20
3055;DHT22;1537;52.018;8.542;2022-10-03T16:11:22;16.00;55.50
3055;DHT22;1537;52.018;8.542;2022-10-03T16:14:48;16.00;55.80
3055;DHT22;1537;52.018;8.542;2022-10-03T16:18:45;15.80;56.50
3055;DHT22;1537;52.018;8.542;2022-10-03T16:22:17;15.70;56.10
3055;DHT22;1537;52.018;8.542;2022-10-03T16:25:45;15.70;56.20
3055;DHT22;1537;52.018;8.542;2022-10-03T16:29:16;15.70;56.60
3055;DHT22;1537;52.018;8.542;2022-10-03T16:32:47;15.70;56.80
3055;DHT22;1537;52.018;8.542;2022-10-03T16:36:16;15.60;56.90
3055;DHT22;1537;52.018;8.542;2022-10-03T16:39:47;15.60;57.30
3055;DHT22;1537;52.018;8.542;2022-10-03T16:43:15;15.40;57.50
3055;DHT22;1537;52.018;8.542;2022-10-03T16:46:45;15.30;57.90
3055;DHT22;1537;52.018;8.542;2022-10-03T16:50:20;15.30;58.30
3055;DHT22;1537;52.018;8.542;2022-10-03T16:53:53;15.10;58.80
3055;DHT22;1537;52.018;8.542;2022-10-03T16:57:25;15.00;59.00
3055;DHT22;1537;52.018;8.542;2022-10-03T17:00:54;15.00;59.30
3055;DHT22;1537;52.018;8.542;2022-10-03T17:04:52;14.90;59.60
3055;DHT22;1537;52.018;8.542;2022-10-03T17:08:19;14.70;61.10
3055;DHT22;1537;52.018;8.542;2022-10-03T17:12:06;14.60;60.60
3055;DHT22;1537;52.018;8.542;2022-10-03T17:15:33;14.50;61.00
3055;DHT22;1537;52.018;8.542;2022-10-03T17:19:10;14.50;61.50
3055;DHT22;1537;52.018;8.542;2022-10-03T17:22:43;14.40;61.60
3055;DHT22;1537;52.018;8.542;2022-10-03T17:26:12;14.30;61.80
3055;DHT22;1537;52.018;8.542;2022-10-03T17:29:44;14.20;62.10
3055;DHT22;1537;52.018;8.542;2022-10-03T17:33:14;14.20;62.60
3055;DHT22;1537;52.018;8.542;2022-10-03T17:37:08;14.00;62.80
3055;DHT22;1537;52.018;8.542;2022-10-03T17:40:58;14.00;63.10
3055;DHT22;1537;52.018;8.542;2022-10-03T17:44:34;13.90;63.60
3055;DHT22;1537;52.018;8.542;2022-10-03T17:48:07;13.80;63.70
3055;DHT22;1537;52.018;8.542;2022-10-03T17:51:37;13.80;63.90
3055;DHT22;1537;52.018;8.542;2022-10-03T17:55:09;13.70;64.00
3055;DHT22;1537;52.018;8.542;2022-10-03T17:58:42;13.60;64.30
3055;DHT22;1537;52.018;8.542;2022-10-03T18:02:24;13.60;64.30
3055;DHT22;1537;52.018;8.542;2022-10-03T18:05:51;13.50;64.30
3055;DHT22;1537;52.018;8.542;2022-10-03T18:09:24;13.50;64.40
3055;DHT22;1537;52.018;8.542;2022-10-03T18:12:50;13.40;64.60
3055;DHT22;1537;52.018;8.542;2022-10-03T18:16:21;13.40;64.80
3055;DHT22;1537;52.018;8.542;2022-10-03T18:20:01;13.40;65.00
3055;DHT22;1537;52.018;8.542;2022-10-03T18:23:34;13.40;65.00
3055;DHT22;1537;52.018;8.542;2022-10-03T18:31:27;13.20;65.10
3055;DHT22;1537;52.018;8.542;2022-10-03T18:35:02;13.20;65.30
3055;DHT22;1537;52.018;8.542;2022-10-03T18:38:35;13.10;65.40
3055;DHT22;1537;52.018;8.542;2022-10-03T18:42:01;13.00;65.60
3055;DHT22;1537;52.018;8.542;2022-10-03T18:45:33;13.00;65.60
3055;DHT22;1537;52.018;8.542;2022-10-03T18:49:04;12.90;65.90
3055;DHT22;1537;52.018;8.542;2022-10-03T18:52:51;12.80;66.00
3055;DHT22;1537;52.018;8.542;2022-10-03T18:56:20;12.70;66.20
3055;DHT22;1537;52.018;8.542;2022-10-03T18:59:48;12.70;66.20
3055;DHT22;1537;52.018;8.542;2022-10-03T19:03:15;12.70;66.40
3055;DHT22;1537;52.018;8.542;2022-10-03T19:06:44;12.60;66.90
3055;DHT22;1537;52.018;8.542;2022-10-03T19:10:28;12.60;66.90
3055;DHT22;1537;52.018;8.542;2022-10-03T19:13:58;12.60;66.80
3055;DHT22;1537;52.018;8.542;2022-10-03T19:17:27;12.50;67.00
3055;DHT22;1537;52.018;8.542;2022-10-03T19:20:56;12.40;67.20
3055;DHT22;1537;52.018;8.542;2022-10-03T19:24:25;12.40;67.60
3055;DHT22;1537;52.018;8.542;2022-10-03T19:28:17;12.30;67.60
3055;DHT22;1537;52.018;8.542;2022-10-03T19:31:50;12.30;68.00
3055;DHT22;1537;52.018;8.542;2022-10-03T19:35:16;12.30;67.80
3055;DHT22;1537;52.018;8.542;2022-10-03T19:38:44;12.30;68.10
3055;DHT22;1537;52.018;8.542;2022-10-03T19:42:22;12.20;68.20
3055;DHT22;1537;52.018;8.542;2022-10-03T19:45:50;12.20;68.20
3055;DHT22;1537;52.018;8.542;2022-10-03T19:49:23;12.20;68.30
3055;DHT22;1537;52.018;8.542;2022-10-03T19:52:49;12.10;68.30
3055;DHT22;1537;52.018;8.542;2022-10-03T19:56:15;12.10;68.50
3055;DHT22;1537;52.018;8.542;2022-10-03T19:59:44;12.00;68.70
3055;DHT22;1537;52.018;8.542;2022-10-03T20:03:15;12.00;68.90
3055;DHT22;1537;52.018;8.542;2022-10-03T20:07:06;11.90;69.10
3055;DHT22;1537;52.018;8.542;2022-10-03T20:10:40;11.90;69.30
3055;DHT22;1537;52.018;8.542;2022-10-03T20:14:13;11.90;69.20
3055;DHT22;1537;52.018;8.542;2022-10-03T20:17:39;11.90;69.20
3055;DHT22;1537;52.018;8.542;2022-10-03T20:21:08;11.90;69.30
3055;DHT22;1537;52.018;8.542;2022-10-03T20:24:34;11.90;69.30
3055;DHT22;1537;52.018;8.542;2022-10-03T20:28:01;11.80;69.40
3055;DHT22;1537;52.018;8.542;2022-10-03T20:31:28;11.90;69.40
3055;DHT22;1537;52.018;8.542;2022-10-03T20:34:56;11.90;69.30
3055;DHT22;1537;52.018;8.542;2022-10-03T20:38:35;11.80;69.20
3055;DHT22;1537;52.018;8.542;2022-10-03T20:42:07;11.80;69.30
3055;DHT22;1537;52.018;8.542;2022-10-03T20:45:32;11.80;69.20
3055;DHT22;1537;52.018;8.542;2022-10-03T20:49:11;11.70;69.40
3055;DHT22;1537;52.018;8.542;2022-10-03T20:52:38;11.70;69.40
3055;DHT22;1537;52.018;8.542;2022-10-03T20:56:05;11.70;69.40
3055;DHT22;1537;52.018;8.542;2022-10-03T20:59:35;11.70;69.30
3055;DHT22;1537;52.018;8.542;2022-10-03T21:03:06;11.70;69.40
3055;DHT22;1537;52.018;8.542;2022-10-03T21:06:32;11.70;69.60
3055;DHT22;1537;52.018;8.542;2022-10-03T21:10:06;11.70;69.60
3055;DHT22;1537;52.018;8.542;2022-10-03T21:13:35;11.70;69.60
3055;DHT22;1537;52.018;8.542;2022-10-03T21:17:01;11.70;69.60
3055;DHT22;1537;52.018;8.542;2022-10-03T21:20:30;11.70;69.60
3055;DHT22;1537;52.018;8.542;2022-10-03T21:24:00;11.60;69.50
3055;DHT22;1537;52.018;8.542;2022-10-03T21:27:27;11.60;69.60
3055;DHT22;1537;52.018;8.542;2022-10-03T21:31:07;11.60;69.70
3055;DHT22;1537;52.018;8.542;2022-10-03T21:34:39;11.60;69.90
3055;DHT22;1537;52.018;8.542;2022-10-03T21:38:13;11.60;69.80
3055;DHT22;1537;52.018;8.542;2022-10-03T21:41:46;11.60;69.60
3055;DHT22;1537;52.018;8.542;2022-10-03T21:45:21;11.60;69.80
3055;DHT22;1537;52.018;8.542;2022-10-03T21:49:00;11.60;69.80
3055;DHT22;1537;52.018;8.542;2022-10-03T21:52:43;11.50;69.90
3055;DHT22;1537;52.018;8.542;2022-10-03T21:56:23;11.50;70.00
3055;DHT22;1537;52.018;8.542;2022-10-03T22:00:07;11.50;70.00
3055;DHT22;1537;52.018;8.542;2022-10-03T22:03:39;11.50;70.00
3055;DHT22;1537;52.018;8.542;2022-10-03T22:07:10;11.40;69.90
3055;DHT22;1537;52.018;8.542;2022-10-03T22:10:35;11.40;70.20
3055;DHT22;1537;52.018;8.542;2022-10-03T22:14:08;11.40;71.00
3055;DHT22;1537;52.018;8.542;2022-10-03T22:17:38;11.30;70.40
3055;DHT22;1537;52.018;8.542;2022-10-03T22:21:17;11.30;70.50
3055;DHT22;1537;52.018;8.542;2022-10-03T22:24:54;11.20;70.70
3055;DHT22;1537;52.018;8.542;2022-10-03T22:28:27;11.10;70.70
3055;DHT22;1537;52.018;8.542;2022-10-03T22:31:58;11.10;70.70
3055;DHT22;1537;52.018;8.542;2022-10-03T22:35:45;11.10;70.80
3055;DHT22;1537;52.018;8.542;2022-10-03T22:39:13;11.10;70.90
3055;DHT22;1537;52.018;8.542;2022-10-03T22:42:41;11.10;71.10
3055;DHT22;1537;52.018;8.542;2022-10-03T22:46:06;11.00;71.20
3055;DHT22;1537;52.018;8.542;2022-10-03T22:49:34;11.00;71.20
3055;DHT22;1537;52.018;8.542;2022-10-03T22:53:00;11.00;71.60
3055;DHT22;1537;52.018;8.542;2022-10-03T22:56:45;10.90;72.10
3055;DHT22;1537;52.018;8.542;2022-10-03T23:00:13;10.90;72.40
3055;DHT22;1537;52.018;8.542;2022-10-03T23:03:38;10.90;72.40
3055;DHT22;1537;52.018;8.542;2022-10-03T23:07:37;10.90;72.40
3055;DHT22;1537;52.018;8.542;2022-10-03T23:11:06;10.80;72.70
3055;DHT22;1537;52.018;8.542;2022-10-03T23:14:35;10.80;72.70
3055;DHT22;1537;52.018;8.542;2022-10-03T23:22:02;10.90;72.60
3055;DHT22;1537;52.018;8.542;2022-10-03T23:25:30;10.90;72.50
3055;DHT22;1537;52.018;8.542;2022-10-03T23:29:00;10.80;72.50
3055;DHT22;1537;52.018;8.542;2022-10-03T23:36:16;10.80;72.50
3055;DHT22;1537;52.018;8.542;2022-10-03T23:39:43;10.90;72.30
3055;DHT22;1537;52.018;8.542;2022-10-03T23:43:28;11.00;72.50
3055;DHT22;1537;52.018;8.542;2022-10-03T23:46:53;11.00;72.30
3055;DHT22;1537;52.018;8.542;2022-10-03T23:50:21;11.10;72.30
3055;DHT22;1537;52.018;8.542;2022-10-03T23:53:48;11.10;72.00
3055;DHT22;1537;52.018;8.542;2022-10-03T23:57:15;11.20;71.90
